sensor_id;sensor_type;location;lat;lon;timestamp;P1;durP1;ratioP1;P2;durP2;ratioP2
34571;SDS011;20808;48.974;8.452;2022-12-29T00:00:01;3.15;;;1.60;;
34571;SDS011;20808;48.974;8.452;2022-12-29T00:00:18;3.30;;;1.70;;
34571;SDS011;20808;48.974;8.452;2022-12-29T00:00:34;4.05;;;1.70;;
34571;SDS011;20808;48.974;8.452;2022-12-29T00:00:50;3.67;;;1.60;;
34571;SDS011;20808;48.974;8.452;2022-12-29T00:01:06;3.75;;;1.70;;
34571;SDS011;20808;48.974;8.452;2022-12-29T00:01:21;3.70;;;1.60;;
34571;SDS011;20808;48.974;8.452;2022-12-29T00:01:38;2.40;;;1.50;;
34571;SDS011;20808;48.974;8.452;2022-12-29T00:01:54;2.70;;;1.60;;
34571;SDS011;20808;48.974;8.452;2022-12-29T00:02:10;2.58;;;1.60;;
34571;SDS011;20808;48.974;8.452;2022-12-29T00:02:27;3.17;;;1.75;;
34571;SDS011;20808;48.974;8.452;2022-12-29T00:02:43;3.37;;;1.70;;
34571;SDS011;20808;48.974;8.452;2022-12-29T00:02:59;4.18;;;1.70;;
34571;SDS011;20808;48.974;8.452;2022-12-29T00:03:15;4.40;;;1.58;;
34571;SDS011;20808;48.974;8.452;2022-12-29T00:03:31;3.72;;;1.50;;
34571;SDS011;20808;48.974;8.452;2022-12-29T00:03:47;3.63;;;1.60;;
34571;SDS011;20808;48.974;8.452;2022-12-29T00:04:03;2.72;;;1.70;;
34571;SDS011;20808;48.974;8.452;2022-12-29T00:04:20;4.10;;;1.80;;
34571;SDS011;20808;48.974;8.452;2022-12-29T00:04:37;3.65;;;1.70;;
34571;SDS011;20808;48.974;8.452;2022-12-29T00:04:52;3.92;;;1.50;;
34571;SDS011;20808;48.974;8.452;2022-12-29T00:05:08;4.30;;;1.55;;
34571;SDS011;20808;48.974;8.452;2022-12-29T00:05:24;2.78;;;1.50;;
34571;SDS011;20808;48.974;8.452;2022-12-29T00:05:40;3.17;;;1.60;;
34571;SDS011;20808;48.974;8.452;2022-12-29T00:05:56;2.83;;;1.73;;
34571;SDS011;20808;48.974;8.452;2022-12-29T00:06:13;3.25;;;1.75;;
34571;SDS011;20808;48.974;8.452;2022-12-29T00:06:29;4.18;;;1.83;;
34571;SDS011;20808;48.974;8.452;2022-12-29T00:06:45;4.25;;;1.80;;
34571;SDS011;20808;48.974;8.452;2022-12-29T00:07:01;4.50;;;1.70;;
34571;SDS011;20808;48.974;8.452;2022-12-29T00:07:19;3.85;;;1.77;;
34571;SDS011;20808;48.974;8.452;2022-12-29T00:07:35;2.97;;;1.70;;
34571;SDS011;20808;48.974;8.452;2022-12-29T00:07:51;3.13;;;1.80;;
34571;SDS011;20808;48.974;8.452;2022-12-29T00:08:06;2.58;;;1.80;;
34571;SDS011;20808;48.974;8.452;2022-12-29T00:08:22;2.30;;;1.67;;
34571;SDS011;20808;48.974;8.452;2022-12-29T00:08:54;2.13;;;1.50;;
34571;SDS011;20808;48.974;8.452;2022-12-29T00:09:12;2.50;;;1.50;;
34571;SDS011;20808;48.974;8.452;2022-12-29T00:09:29;3.20;;;1.60;;
34571;SDS011;20808;48.974;8.452;2022-12-29T00:09:44;3.30;;;1.70;;
34571;SDS011;20808;48.974;8.452;2022-12-29T00:10:00;2.83;;;1.70;;
34571;SDS011;20808;48.974;8.452;2022-12-29T00:10:16;3.20;;;1.80;;
34571;SDS011;20808;48.974;8.452;2022-12-29T00:10:33;3.55;;;1.90;;
34571;SDS011;20808;48.974;8.452;2022-12-29T00:10:49;4.00;;;1.80;;
34571;SDS011;20808;48.974;8.452;2022-12-29T00:11:05;4.67;;;1.90;;
34571;SDS011;20808;48.974;8.452;2022-12-29T00:11:22;4.13;;;1.88;;
34571;SDS011;20808;48.974;8.452;2022-12-29T00:11:40;3.00;;;1.70;;
34571;SDS011;20808;48.974;8.452;2022-12-29T00:11:55;2.10;;;1.65;;
34571;SDS011;20808;48.974;8.452;2022-12-29T00:12:12;2.58;;;1.60;;
34571;SDS011;20808;48.974;8.452;2022-12-29T00:12:28;3.10;;;1.60;;
34571;SDS011;20808;48.974;8.452;2022-12-29T00:13:04;3.72;;;1.70;;
34571;SDS011;20808;48.974;8.452;2022-12-29T00:13:38;4.72;;;1.80;;
34571;SDS011;20808;48.974;8.452;2022-12-29T00:14:13;4.47;;;1.80;;
34571;SDS011;20808;48.974;8.452;2022-12-29T00:14:47;3.83;;;1.70;;
34571;SDS011;20808;48.974;8.452;2022-12-29T00:15:22;4.32;;;1.60;;
34571;SDS011;20808;48.974;8.452;2022-12-29T00:15:53;3.95;;;1.60;;
34571;SDS011;20808;48.974;8.452;2022-12-29T00:16:09;4.40;;;1.70;;
34571;SDS011;20808;48.974;8.452;2022-12-29T00:16:25;3.30;;;1.60;;
34571;SDS011;20808;48.974;8.452;2022-12-29T00:16:43;3.67;;;1.70;;
34571;SDS011;20808;48.974;8.452;2022-12-29T00:17:00;3.20;;;1.60;;
34571;SDS011;20808;48.974;8.452;2022-12-29T00:17:16;2.90;;;1.60;;
34571;SDS011;20808;48.974;8.452;2022-12-29T00:17:31;2.70;;;1.60;;
34571;SDS011;20808;48.974;8.452;2022-12-29T00:17:47;2.38;;;1.70;;
34571;SDS011;20808;48.974;8.452;2022-12-29T00:18:04;2.85;;;2.00;;
34571;SDS011;20808;48.974;8.452;2022-12-29T00:18:20;4.13;;;2.10;;
34571;SDS011;20808;48.974;8.452;2022-12-29T00:18:36;4.43;;;2.20;;
34571;SDS011;20808;48.974;8.452;2022-12-29T00:18:51;4.50;;;2.20;;
34571;SDS011;20808;48.974;8.452;2022-12-29T00:19:07;3.58;;;1.80;;
34571;SDS011;20808;48.974;8.452;2022-12-29T00:19:44;2.28;;;1.60;;
34571;SDS011;20808;48.974;8.452;2022-12-29T00:20:18;2.38;;;1.40;;
34571;SDS011;20808;48.974;8.452;2022-12-29T00:20:54;2.50;;;1.50;;
34571;SDS011;20808;48.974;8.452;2022-12-29T00:21:40;2.40;;;1.50;;
34571;SDS011;20808;48.974;8.452;2022-12-29T00:22:19;3.60;;;1.30;;
34571;SDS011;20808;48.974;8.452;2022-12-29T00:22:53;6.93;;;1.60;;
34571;SDS011;20808;48.974;8.452;2022-12-29T00:23:28;5.65;;;1.80;;
34571;SDS011;20808;48.974;8.452;2022-12-29T00:24:03;3.08;;;1.70;;
34571;SDS011;20808;48.974;8.452;2022-12-29T00:24:39;3.40;;;1.50;;
34571;SDS011;20808;48.974;8.452;2022-12-29T00:25:13;4.40;;;1.50;;
34571;SDS011;20808;48.974;8.452;2022-12-29T00:25:48;3.58;;;1.60;;
34571;SDS011;20808;48.974;8.452;2022-12-29T00:26:22;4.60;;;1.65;;
34571;SDS011;20808;48.974;8.452;2022-12-29T00:26:58;5.57;;;1.70;;
34571;SDS011;20808;48.974;8.452;2022-12-29T00:27:45;3.20;;;1.80;;
34571;SDS011;20808;48.974;8.452;2022-12-29T00:28:19;3.85;;;1.90;;
34571;SDS011;20808;48.974;8.452;2022-12-29T00:28:54;4.78;;;1.90;;
34571;SDS011;20808;48.974;8.452;2022-12-29T00:29:24;3.30;;;1.80;;
34571;SDS011;20808;48.974;8.452;2022-12-29T00:29:59;1.90;;;1.60;;
34571;SDS011;20808;48.974;8.452;2022-12-29T00:30:34;3.15;;;1.55;;
34571;SDS011;20808;48.974;8.452;2022-12-29T00:31:10;3.47;;;1.63;;
34571;SDS011;20808;48.974;8.452;2022-12-29T00:31:45;2.28;;;1.40;;
34571;SDS011;20808;48.974;8.452;2022-12-29T00:32:19;2.75;;;1.52;;
34571;SDS011;20808;48.974;8.452;2022-12-29T00:32:54;2.65;;;1.70;;
34571;SDS011;20808;48.974;8.452;2022-12-29T00:33:29;3.10;;;1.63;;
34571;SDS011;20808;48.974;8.452;2022-12-29T00:34:06;3.20;;;1.80;;
34571;SDS011;20808;48.974;8.452;2022-12-29T00:34:43;3.10;;;1.80;;
34571;SDS011;20808;48.974;8.452;2022-12-29T00:35:21;3.10;;;1.70;;
34571;SDS011;20808;48.974;8.452;2022-12-29T00:35:43;2.63;;;1.60;;
34571;SDS011;20808;48.974;8.452;2022-12-29T00:36:02;2.40;;;1.60;;
34571;SDS011;20808;48.974;8.452;2022-12-29T00:36:21;2.35;;;1.60;;
34571;SDS011;20808;48.974;8.452;2022-12-29T00:36:41;3.03;;;1.70;;
34571;SDS011;20808;48.974;8.452;2022-12-29T00:36:59;3.70;;;1.90;;
34571;SDS011;20808;48.974;8.452;2022-12-29T00:37:15;4.05;;;1.80;;
34571;SDS011;20808;48.974;8.452;2022-12-29T00:37:52;5.32;;;1.70;;
34571;SDS011;20808;48.974;8.452;2022-12-29T00:38:29;4.30;;;1.70;;
34571;SDS011;20808;48.974;8.452;2022-12-29T00:39:07;3.22;;;1.60;;
34571;SDS011;20808;48.974;8.452;2022-12-29T00:39:45;4.03;;;1.65;;
34571;SDS011;20808;48.974;8.452;2022-12-29T00:40:19;2.95;;;1.70;;
34571;SDS011;20808;48.974;8.452;2022-12-29T00:40:50;2.80;;;1.70;;
34571;SDS011;20808;48.974;8.452;2022-12-29T00:41:24;3.40;;;1.80;;
34571;SDS011;20808;48.974;8.452;2022-12-29T00:42:13;4.00;;;1.90;;
34571;SDS011;20808;48.974;8.452;2022-12-29T00:42:47;3.77;;;1.60;;
34571;SDS011;20808;48.974;8.452;2022-12-29T00:43:22;4.43;;;1.60;;
34571;SDS011;20808;48.974;8.452;2022-12-29T00:43:56;3.88;;;1.60;;
34571;SDS011;20808;48.974;8.452;2022-12-29T00:44:21;4.55;;;1.67;;
34571;SDS011;20808;48.974;8.452;2022-12-29T00:44:37;4.97;;;1.80;;
34571;SDS011;20808;48.974;8.452;2022-12-29T00:44:53;5.65;;;1.80;;
34571;SDS011;20808;48.974;8.452;2022-12-29T00:45:09;4.90;;;1.90;;
34571;SDS011;20808;48.974;8.452;2022-12-29T00:45:24;6.43;;;2.10;;
34571;SDS011;20808;48.974;8.452;2022-12-29T00:45:41;5.45;;;2.00;;
34571;SDS011;20808;48.974;8.452;2022-12-29T00:45:57;5.47;;;2.00;;
34571;SDS011;20808;48.974;8.452;2022-12-29T00:46:13;5.07;;;1.88;;
34571;SDS011;20808;48.974;8.452;2022-12-29T00:46:29;3.37;;;1.50;;
34571;SDS011;20808;48.974;8.452;2022-12-29T00:46:44;3.33;;;1.60;;
34571;SDS011;20808;48.974;8.452;2022-12-29T00:47:01;2.70;;;1.60;;
34571;SDS011;20808;48.974;8.452;2022-12-29T00:47:19;2.78;;;1.70;;
34571;SDS011;20808;48.974;8.452;2022-12-29T00:47:35;3.03;;;1.70;;
34571;SDS011;20808;48.974;8.452;2022-12-29T00:47:50;3.22;;;1.60;;
34571;SDS011;20808;48.974;8.452;2022-12-29T00:48:06;3.50;;;1.70;;
34571;SDS011;20808;48.974;8.452;2022-12-29T00:48:22;4.63;;;1.80;;
34571;SDS011;20808;48.974;8.452;2022-12-29T00:48:53;6.00;;;1.80;;
34571;SDS011;20808;48.974;8.452;2022-12-29T00:49:27;4.47;;;1.60;;
34571;SDS011;20808;48.974;8.452;2022-12-29T00:49:46;3.17;;;1.65;;
34571;SDS011;20808;48.974;8.452;2022-12-29T00:50:02;2.80;;;1.60;;
34571;SDS011;20808;48.974;8.452;2022-12-29T00:50:18;3.05;;;1.60;;
34571;SDS011;20808;48.974;8.452;2022-12-29T00:50:34;2.60;;;1.60;;
34571;SDS011;20808;48.974;8.452;2022-12-29T00:50:50;2.47;;;1.70;;
34571;SDS011;20808;48.974;8.452;2022-12-29T00:51:10;2.42;;;1.85;;
34571;SDS011;20808;48.974;8.452;2022-12-29T00:51:26;3.00;;;1.83;;
34571;SDS011;20808;48.974;8.452;2022-12-29T00:51:42;5.20;;;1.90;;
34571;SDS011;20808;48.974;8.452;2022-12-29T00:51:59;5.03;;;1.70;;
34571;SDS011;20808;48.974;8.452;2022-12-29T00:52:17;4.75;;;1.52;;
34571;SDS011;20808;48.974;8.452;2022-12-29T00:52:33;4.45;;;1.50;;
34571;SDS011;20808;48.974;8.452;2022-12-29T00:52:49;2.97;;;1.50;;
34571;SDS011;20808;48.974;8.452;2022-12-29T00:53:04;4.20;;;1.60;;
34571;SDS011;20808;48.974;8.452;2022-12-29T00:53:20;5.05;;;1.70;;
34571;SDS011;20808;48.974;8.452;2022-12-29T00:53:36;4.70;;;1.80;;
34571;SDS011;20808;48.974;8.452;2022-12-29T00:53:53;5.70;;;1.90;;
34571;SDS011;20808;48.974;8.452;2022-12-29T00:54:09;4.33;;;1.80;;
34571;SDS011;20808;48.974;8.452;2022-12-29T00:54:24;4.28;;;1.67;;
34571;SDS011;20808;48.974;8.452;2022-12-29T00:54:40;6.15;;;1.65;;
34571;SDS011;20808;48.974;8.452;2022-12-29T00:55:01;5.80;;;1.70;;
34571;SDS011;20808;48.974;8.452;2022-12-29T00:55:16;4.80;;;1.60;;
34571;SDS011;20808;48.974;8.452;2022-12-29T00:55:35;3.08;;;1.65;;
34571;SDS011;20808;48.974;8.452;2022-12-29T00:55:52;4.00;;;1.70;;
34571;SDS011;20808;48.974;8.452;2022-12-29T00:56:07;4.25;;;1.80;;
34571;SDS011;20808;48.974;8.452;2022-12-29T00:56:23;5.03;;;1.80;;
34571;SDS011;20808;48.974;8.452;2022-12-29T00:56:39;4.33;;;1.80;;
34571;SDS011;20808;48.974;8.452;2022-12-29T00:56:56;3.28;;;1.73;;
34571;SDS011;20808;48.974;8.452;2022-12-29T00:57:12;2.80;;;1.60;;
34571;SDS011;20808;48.974;8.452;2022-12-29T00:57:28;2.92;;;1.77;;
34571;SDS011;20808;48.974;8.452;2022-12-29T00:57:43;3.05;;;1.63;;
34571;SDS011;20808;48.974;8.452;2022-12-29T00:57:59;4.55;;;1.77;;
34571;SDS011;20808;48.974;8.452;2022-12-29T00:58:15;4.87;;;1.80;;
34571;SDS011;20808;48.974;8.452;2022-12-29T00:58:32;4.70;;;1.88;;
34571;SDS011;20808;48.974;8.452;2022-12-29T00:58:48;4.35;;;1.90;;
34571;SDS011;20808;48.974;8.452;2022-12-29T00:59:04;3.60;;;1.92;;
34571;SDS011;20808;48.974;8.452;2022-12-29T00:59:21;3.10;;;1.85;;
34571;SDS011;20808;48.974;8.452;2022-12-29T00:59:39;3.80;;;1.80;;
34571;SDS011;20808;48.974;8.452;2022-12-29T00:59:56;4.63;;;1.70;;
34571;SDS011;20808;48.974;8.452;2022-12-29T01:00:12;4.35;;;1.70;;
34571;SDS011;20808;48.974;8.452;2022-12-29T01:00:28;3.95;;;1.70;;
34571;SDS011;20808;48.974;8.452;2022-12-29T01:00:44;4.20;;;1.70;;
34571;SDS011;20808;48.974;8.452;2022-12-29T01:01:00;3.40;;;1.70;;
34571;SDS011;20808;48.974;8.452;2022-12-29T01:01:17;3.13;;;1.60;;
34571;SDS011;20808;48.974;8.452;2022-12-29T01:01:34;3.83;;;1.70;;
34571;SDS011;20808;48.974;8.452;2022-12-29T01:01:50;3.10;;;1.70;;
34571;SDS011;20808;48.974;8.452;2022-12-29T01:02:07;3.90;;;1.80;;
34571;SDS011;20808;48.974;8.452;2022-12-29T01:02:24;3.92;;;1.73;;
34571;SDS011;20808;48.974;8.452;2022-12-29T01:02:40;3.87;;;1.73;;
34571;SDS011;20808;48.974;8.452;2022-12-29T01:02:56;3.90;;;1.75;;
34571;SDS011;20808;48.974;8.452;2022-12-29T01:03:12;3.97;;;1.70;;
34571;SDS011;20808;48.974;8.452;2022-12-29T01:03:28;4.07;;;1.80;;
34571;SDS011;20808;48.974;8.452;2022-12-29T01:03:44;3.40;;;1.60;;
34571;SDS011;20808;48.974;8.452;2022-12-29T01:04:00;3.05;;;1.60;;
34571;SDS011;20808;48.974;8.452;2022-12-29T01:04:16;2.92;;;1.60;;
34571;SDS011;20808;48.974;8.452;2022-12-29T01:04:32;2.63;;;1.60;;
34571;SDS011;20808;48.974;8.452;2022-12-29T01:04:49;2.03;;;1.50;;
34571;SDS011;20808;48.974;8.452;2022-12-29T01:05:05;2.10;;;1.60;;
34571;SDS011;20808;48.974;8.452;2022-12-29T01:05:21;2.28;;;1.60;;
34571;SDS011;20808;48.974;8.452;2022-12-29T01:05:36;3.08;;;1.70;;
34571;SDS011;20808;48.974;8.452;2022-12-29T01:05:52;3.72;;;1.73;;
34571;SDS011;20808;48.974;8.452;2022-12-29T01:06:09;5.07;;;1.80;;
34571;SDS011;20808;48.974;8.452;2022-12-29T01:06:26;5.80;;;2.00;;
34571;SDS011;20808;48.974;8.452;2022-12-29T01:06:42;5.10;;;2.00;;
34571;SDS011;20808;48.974;8.452;2022-12-29T01:06:58;4.45;;;2.00;;
34571;SDS011;20808;48.974;8.452;2022-12-29T01:07:14;2.97;;;1.88;;
34571;SDS011;20808;48.974;8.452;2022-12-29T01:07:30;2.92;;;1.90;;
34571;SDS011;20808;48.974;8.452;2022-12-29T01:07:47;3.33;;;1.90;;
34571;SDS011;20808;48.974;8.452;2022-12-29T01:08:02;3.20;;;1.90;;
34571;SDS011;20808;48.974;8.452;2022-12-29T01:08:19;3.28;;;1.90;;
34571;SDS011;20808;48.974;8.452;2022-12-29T01:08:35;3.57;;;1.80;;
34571;SDS011;20808;48.974;8.452;2022-12-29T01:08:51;4.18;;;1.83;;
34571;SDS011;20808;48.974;8.452;2022-12-29T01:09:22;5.40;;;1.80;;
34571;SDS011;20808;48.974;8.452;2022-12-29T01:09:56;5.72;;;1.80;;
34571;SDS011;20808;48.974;8.452;2022-12-29T01:10:28;4.72;;;1.90;;
34571;SDS011;20808;48.974;8.452;2022-12-29T01:10:45;4.90;;;1.90;;
34571;SDS011;20808;48.974;8.452;2022-12-29T01:11:02;3.50;;;1.80;;
34571;SDS011;20808;48.974;8.452;2022-12-29T01:11:19;4.80;;;1.65;;
34571;SDS011;20808;48.974;8.452;2022-12-29T01:11:35;4.88;;;1.70;;
34571;SDS011;20808;48.974;8.452;2022-12-29T01:11:51;4.57;;;1.70;;
34571;SDS011;20808;48.974;8.452;2022-12-29T01:12:07;5.30;;;1.80;;
34571;SDS011;20808;48.974;8.452;2022-12-29T01:12:24;4.00;;;1.90;;
34571;SDS011;20808;48.974;8.452;2022-12-29T01:12:54;3.53;;;1.90;;
34571;SDS011;20808;48.974;8.452;2022-12-29T01:13:11;2.90;;;1.83;;
34571;SDS011;20808;48.974;8.452;2022-12-29T01:13:27;2.67;;;1.80;;
34571;SDS011;20808;48.974;8.452;2022-12-29T01:13:43;2.40;;;1.80;;
34571;SDS011;20808;48.974;8.452;2022-12-29T01:13:59;3.00;;;1.63;;
34571;SDS011;20808;48.974;8.452;2022-12-29T01:14:14;3.03;;;1.63;;
34571;SDS011;20808;48.974;8.452;2022-12-29T01:14:31;2.88;;;1.67;;
34571;SDS011;20808;48.974;8.452;2022-12-29T01:14:48;3.30;;;1.73;;
34571;SDS011;20808;48.974;8.452;2022-12-29T01:15:04;3.00;;;1.90;;
34571;SDS011;20808;48.974;8.452;2022-12-29T01:15:20;2.80;;;1.90;;
34571;SDS011;20808;48.974;8.452;2022-12-29T01:15:36;2.60;;;1.90;;
34571;SDS011;20808;48.974;8.452;2022-12-29T01:15:52;3.13;;;1.88;;
34571;SDS011;20808;48.974;8.452;2022-12-29T01:16:09;2.97;;;1.70;;
34571;SDS011;20808;48.974;8.452;2022-12-29T01:16:25;3.33;;;1.80;;
34571;SDS011;20808;48.974;8.452;2022-12-29T01:16:41;3.20;;;1.70;;
34571;SDS011;20808;48.974;8.452;2022-12-29T01:16:57;3.45;;;1.70;;
34571;SDS011;20808;48.974;8.452;2022-12-29T01:17:13;4.13;;;1.67;;
34571;SDS011;20808;48.974;8.452;2022-12-29T01:17:29;5.95;;;1.73;;
34571;SDS011;20808;48.974;8.452;2022-12-29T01:17:45;7.43;;;1.90;;
34571;SDS011;20808;48.974;8.452;2022-12-29T01:18:02;6.72;;;1.80;;
34571;SDS011;20808;48.974;8.452;2022-12-29T01:18:17;6.60;;;1.80;;
34571;SDS011;20808;48.974;8.452;2022-12-29T01:18:33;4.55;;;1.80;;
34571;SDS011;20808;48.974;8.452;2022-12-29T01:18:49;4.57;;;1.80;;
34571;SDS011;20808;48.974;8.452;2022-12-29T01:19:05;4.97;;;1.90;;
34571;SDS011;20808;48.974;8.452;2022-12-29T01:19:21;5.43;;;1.97;;
34571;SDS011;20808;48.974;8.452;2022-12-29T01:19:37;4.40;;;1.90;;
34571;SDS011;20808;48.974;8.452;2022-12-29T01:19:54;3.97;;;1.90;;
34571;SDS011;20808;48.974;8.452;2022-12-29T01:20:10;3.72;;;1.90;;
34571;SDS011;20808;48.974;8.452;2022-12-29T01:20:26;3.50;;;2.00;;
34571;SDS011;20808;48.974;8.452;2022-12-29T01:20:43;3.40;;;1.92;;
34571;SDS011;20808;48.974;8.452;2022-12-29T01:20:59;2.87;;;1.70;;
34571;SDS011;20808;48.974;8.452;2022-12-29T01:21:15;2.78;;;1.60;;
34571;SDS011;20808;48.974;8.452;2022-12-29T01:21:32;2.95;;;1.52;;
34571;SDS011;20808;48.974;8.452;2022-12-29T01:21:49;2.80;;;1.60;;
34571;SDS011;20808;48.974;8.452;2022-12-29T01:22:05;3.58;;;1.70;;
34571;SDS011;20808;48.974;8.452;2022-12-29T01:22:20;3.67;;;1.70;;
34571;SDS011;20808;48.974;8.452;2022-12-29T01:22:37;3.78;;;1.80;;
34571;SDS011;20808;48.974;8.452;2022-12-29T01:22:53;3.72;;;1.70;;
34571;SDS011;20808;48.974;8.452;2022-12-29T01:23:09;3.10;;;1.83;;
34571;SDS011;20808;48.974;8.452;2022-12-29T01:23:25;3.88;;;1.90;;
34571;SDS011;20808;48.974;8.452;2022-12-29T01:23:41;4.15;;;1.92;;
34571;SDS011;20808;48.974;8.452;2022-12-29T01:23:57;5.40;;;2.10;;
34571;SDS011;20808;48.974;8.452;2022-12-29T01:24:13;4.50;;;2.07;;
34571;SDS011;20808;48.974;8.452;2022-12-29T01:24:30;6.28;;;2.20;;
34571;SDS011;20808;48.974;8.452;2022-12-29T01:24:45;4.80;;;2.10;;
34571;SDS011;20808;48.974;8.452;2022-12-29T01:25:01;4.72;;;2.10;;
34571;SDS011;20808;48.974;8.452;2022-12-29T01:25:18;4.07;;;1.80;;
34571;SDS011;20808;48.974;8.452;2022-12-29T01:25:36;2.55;;;1.73;;
34571;SDS011;20808;48.974;8.452;2022-12-29T01:25:52;2.75;;;1.80;;
34571;SDS011;20808;48.974;8.452;2022-12-29T01:26:08;3.30;;;1.90;;
34571;SDS011;20808;48.974;8.452;2022-12-29T01:26:24;4.28;;;2.00;;
34571;SDS011;20808;48.974;8.452;2022-12-29T01:26:40;4.60;;;2.10;;
34571;SDS011;20808;48.974;8.452;2022-12-29T01:26:56;4.55;;;1.92;;
34571;SDS011;20808;48.974;8.452;2022-12-29T01:27:13;4.30;;;1.80;;
34571;SDS011;20808;48.974;8.452;2022-12-29T01:27:29;4.80;;;1.95;;
34571;SDS011;20808;48.974;8.452;2022-12-29T01:27:44;4.03;;;1.90;;
34571;SDS011;20808;48.974;8.452;2022-12-29T01:28:00;4.93;;;1.98;;
34571;SDS011;20808;48.974;8.452;2022-12-29T01:28:16;3.95;;;1.90;;
34571;SDS011;20808;48.974;8.452;2022-12-29T01:28:32;3.57;;;1.83;;
34571;SDS011;20808;48.974;8.452;2022-12-29T01:28:49;3.80;;;1.80;;
34571;SDS011;20808;48.974;8.452;2022-12-29T01:29:04;2.80;;;1.70;;
34571;SDS011;20808;48.974;8.452;2022-12-29T01:29:20;3.15;;;1.80;;
34571;SDS011;20808;48.974;8.452;2022-12-29T01:29:36;2.70;;;1.77;;
34571;SDS011;20808;48.974;8.452;2022-12-29T01:29:52;2.63;;;1.80;;
34571;SDS011;20808;48.974;8.452;2022-12-29T01:30:09;2.33;;;1.80;;
34571;SDS011;20808;48.974;8.452;2022-12-29T01:30:25;2.55;;;1.70;;
34571;SDS011;20808;48.974;8.452;2022-12-29T01:30:41;3.30;;;1.73;;
34571;SDS011;20808;48.974;8.452;2022-12-29T01:30:59;4.40;;;1.70;;
34571;SDS011;20808;48.974;8.452;2022-12-29T01:31:15;4.10;;;1.70;;
34571;SDS011;20808;48.974;8.452;2022-12-29T01:31:31;4.28;;;1.70;;
34571;SDS011;20808;48.974;8.452;2022-12-29T01:31:48;4.68;;;1.70;;
34571;SDS011;20808;48.974;8.452;2022-12-29T01:32:04;3.83;;;1.70;;
34571;SDS011;20808;48.974;8.452;2022-12-29T01:32:20;3.70;;;1.70;;
34571;SDS011;20808;48.974;8.452;2022-12-29T01:32:36;5.55;;;1.73;;
34571;SDS011;20808;48.974;8.452;2022-12-29T01:32:52;5.85;;;1.80;;
34571;SDS011;20808;48.974;8.452;2022-12-29T01:33:08;6.72;;;1.70;;
34571;SDS011;20808;48.974;8.452;2022-12-29T01:33:25;7.07;;;1.80;;
34571;SDS011;20808;48.974;8.452;2022-12-29T01:33:40;5.20;;;1.70;;
34571;SDS011;20808;48.974;8.452;2022-12-29T01:33:57;4.30;;;1.83;;
34571;SDS011;20808;48.974;8.452;2022-12-29T01:34:13;3.70;;;1.87;;
34571;SDS011;20808;48.974;8.452;2022-12-29T01:34:29;3.43;;;1.90;;
34571;SDS011;20808;48.974;8.452;2022-12-29T01:34:45;3.30;;;1.90;;
34571;SDS011;20808;48.974;8.452;2022-12-29T01:35:01;2.28;;;1.77;;
34571;SDS011;20808;48.974;8.452;2022-12-29T01:35:18;2.47;;;1.67;;
34571;SDS011;20808;48.974;8.452;2022-12-29T01:35:33;2.88;;;1.67;;
34571;SDS011;20808;48.974;8.452;2022-12-29T01:35:49;2.92;;;1.70;;
34571;SDS011;20808;48.974;8.452;2022-12-29T01:36:06;3.10;;;1.70;;
34571;SDS011;20808;48.974;8.452;2022-12-29T01:36:24;3.17;;;1.85;;
34571;SDS011;20808;48.974;8.452;2022-12-29T01:36:41;3.05;;;1.88;;
34571;SDS011;20808;48.974;8.452;2022-12-29T01:36:57;3.30;;;1.88;;
34571;SDS011;20808;48.974;8.452;2022-12-29T01:37:12;3.15;;;1.90;;
34571;SDS011;20808;48.974;8.452;2022-12-29T01:37:28;2.47;;;1.80;;
34571;SDS011;20808;48.974;8.452;2022-12-29T01:37:44;2.53;;;1.90;;
34571;SDS011;20808;48.974;8.452;2022-12-29T01:38:00;3.33;;;2.00;;
34571;SDS011;20808;48.974;8.452;2022-12-29T01:38:17;3.80;;;1.92;;
34571;SDS011;20808;48.974;8.452;2022-12-29T01:38:33;4.78;;;2.10;;
34571;SDS011;20808;48.974;8.452;2022-12-29T01:38:50;4.35;;;1.90;;
34571;SDS011;20808;48.974;8.452;2022-12-29T01:39:06;3.70;;;1.77;;
34571;SDS011;20808;48.974;8.452;2022-12-29T01:39:22;4.50;;;1.80;;
34571;SDS011;20808;48.974;8.452;2022-12-29T01:39:38;4.25;;;1.80;;
34571;SDS011;20808;48.974;8.452;2022-12-29T01:39:54;4.18;;;1.90;;
34571;SDS011;20808;48.974;8.452;2022-12-29T01:40:10;4.63;;;1.98;;
34571;SDS011;20808;48.974;8.452;2022-12-29T01:40:26;4.28;;;2.00;;
34571;SDS011;20808;48.974;8.452;2022-12-29T01:40:45;3.83;;;1.92;;
34571;SDS011;20808;48.974;8.452;2022-12-29T01:41:03;3.55;;;1.83;;
34571;SDS011;20808;48.974;8.452;2022-12-29T01:41:20;2.92;;;1.75;;
34571;SDS011;20808;48.974;8.452;2022-12-29T01:41:36;3.75;;;1.80;;
34571;SDS011;20808;48.974;8.452;2022-12-29T01:41:52;3.60;;;1.63;;
34571;SDS011;20808;48.974;8.452;2022-12-29T01:42:11;3.90;;;1.80;;
34571;SDS011;20808;48.974;8.452;2022-12-29T01:42:32;3.22;;;1.70;;
34571;SDS011;20808;48.974;8.452;2022-12-29T01:42:48;3.80;;;1.75;;
34571;SDS011;20808;48.974;8.452;2022-12-29T01:43:04;3.50;;;1.80;;
34571;SDS011;20808;48.974;8.452;2022-12-29T01:43:37;4.40;;;1.90;;
34571;SDS011;20808;48.974;8.452;2022-12-29T01:43:55;4.18;;;1.92;;
34571;SDS011;20808;48.974;8.452;2022-12-29T01:45:07;2.80;;;1.50;;
34571;SDS011;20808;48.974;8.452;2022-12-29T01:45:25;2.40;;;1.60;;
34571;SDS011;20808;48.974;8.452;2022-12-29T01:45:42;2.45;;;1.60;;
34571;SDS011;20808;48.974;8.452;2022-12-29T01:46:04;2.50;;;1.50;;
34571;SDS011;20808;48.974;8.452;2022-12-29T01:46:29;2.75;;;1.50;;
34571;SDS011;20808;48.974;8.452;2022-12-29T01:46:47;2.80;;;1.60;;
34571;SDS011;20808;48.974;8.452;2022-12-29T01:47:04;3.03;;;1.80;;
34571;SDS011;20808;48.974;8.452;2022-12-29T01:47:25;3.38;;;1.80;;
34571;SDS011;20808;48.974;8.452;2022-12-29T01:47:47;3.63;;;1.90;;
34571;SDS011;20808;48.974;8.452;2022-12-29T01:48:08;4.10;;;1.95;;
34571;SDS011;20808;48.974;8.452;2022-12-29T01:48:25;4.00;;;1.80;;
34571;SDS011;20808;48.974;8.452;2022-12-29T01:48:41;3.80;;;1.83;;
34571;SDS011;20808;48.974;8.452;2022-12-29T01:48:58;3.67;;;1.88;;
34571;SDS011;20808;48.974;8.452;2022-12-29T01:49:21;4.97;;;2.20;;
34571;SDS011;20808;48.974;8.452;2022-12-29T01:49:39;4.88;;;2.10;;
34571;SDS011;20808;48.974;8.452;2022-12-29T01:49:56;4.50;;;2.00;;
34571;SDS011;20808;48.974;8.452;2022-12-29T01:50:15;1.90;;;1.70;;
34571;SDS011;20808;48.974;8.452;2022-12-29T01:50:37;1.92;;;1.70;;
34571;SDS011;20808;48.974;8.452;2022-12-29T01:50:56;2.38;;;1.70;;
34571;SDS011;20808;48.974;8.452;2022-12-29T01:51:12;3.00;;;1.80;;
34571;SDS011;20808;48.974;8.452;2022-12-29T01:51:28;3.00;;;1.80;;
34571;SDS011;20808;48.974;8.452;2022-12-29T01:51:47;3.28;;;1.70;;
34571;SDS011;20808;48.974;8.452;2022-12-29T01:52:07;3.28;;;1.85;;
34571;SDS011;20808;48.974;8.452;2022-12-29T01:52:24;3.50;;;1.90;;
34571;SDS011;20808;48.974;8.452;2022-12-29T01:52:42;3.30;;;1.88;;
34571;SDS011;20808;48.974;8.452;2022-12-29T01:53:07;2.85;;;1.70;;
34571;SDS011;20808;48.974;8.452;2022-12-29T01:53:26;2.65;;;1.77;;
34571;SDS011;20808;48.974;8.452;2022-12-29T01:53:48;2.90;;;1.90;;
34571;SDS011;20808;48.974;8.452;2022-12-29T01:54:05;3.20;;;1.90;;
34571;SDS011;20808;48.974;8.452;2022-12-29T01:54:25;3.38;;;1.98;;
34571;SDS011;20808;48.974;8.452;2022-12-29T01:54:47;3.33;;;1.77;;
34571;SDS011;20808;48.974;8.452;2022-12-29T01:55:07;2.80;;;1.58;;
34571;SDS011;20808;48.974;8.452;2022-12-29T01:55:26;3.53;;;1.50;;
34571;SDS011;20808;48.974;8.452;2022-12-29T01:55:46;3.33;;;1.60;;
34571;SDS011;20808;48.974;8.452;2022-12-29T01:56:05;3.58;;;1.80;;
34571;SDS011;20808;48.974;8.452;2022-12-29T01:56:25;2.88;;;1.80;;
34571;SDS011;20808;48.974;8.452;2022-12-29T01:56:41;2.90;;;1.70;;
34571;SDS011;20808;48.974;8.452;2022-12-29T01:56:59;2.90;;;1.70;;
34571;SDS011;20808;48.974;8.452;2022-12-29T01:57:20;2.97;;;1.70;;
34571;SDS011;20808;48.974;8.452;2022-12-29T01:57:40;3.60;;;1.80;;
34571;SDS011;20808;48.974;8.452;2022-12-29T01:57:59;4.45;;;1.80;;